Time;durP1;ratioP1;P1;durP2;ratioP2;P2;SDS_P1;SDS_P2;PMS_P1;PMS_P2;Temp;Humidity;BMP_temperature;BMP_pressure;BME280_temperature;BME280_humidity;BME280_pressure;Samples;Min_cycle;Max_cycle;Signal;HPM_P1;HPM_P2
2021/06/10 00:00:48;;;;;;;;;13.25;13.25;;;;;27.62;41.40;101345.84;4996321;28;45407;-75
2021/06/10 00:03:14;;;;;;;;;16.50;16.00;;;;;27.59;41.82;101344.22;4984580;28;45374;-75
2021/06/10 00:05:39;;;;;;;;;11.75;11.50;;;;;27.58;41.83;101344.31;4958945;28;45523;-75
2021/06/10 00:08:07;;;;;;;;;12.75;12.00;;;;;27.57;42.26;101340.75;4983702;28;63631;-75
2021/06/10 00:10:32;;;;;;;;;15.00;13.75;;;;;27.57;41.97;101348.78;4966924;28;45180;-75
2021/06/10 00:12:58;;;;;;;;;12.00;11.50;;;;;27.56;42.28;101344.38;4983054;28;45241;-75
2021/06/10 00:15:25;;;;;;;;;12.25;11.50;;;;;27.56;42.07;101352.44;4983244;28;45227;-75
2021/06/10 00:17:51;;;;;;;;;15.00;15.00;;;;;27.57;42.34;101350.63;4966749;28;46272;-75
2021/06/10 00:20:17;;;;;;;;;14.00;14.00;;;;;27.57;42.35;101353.28;4983327;28;45245;-75
2021/06/10 00:22:43;;;;;;;;;14.00;13.75;;;;;27.57;42.33;101351.47;4996257;28;45330;-75
2021/06/10 00:25:08;;;;;;;;;14.75;13.00;;;;;27.57;41.93;101351.47;4982412;28;45458;-75
2021/06/10 00:27:34;;;;;;;;;13.00;13.00;;;;;27.55;42.29;101348.03;4982612;28;45473;-75
2021/06/10 00:30:00;;;;;;;;;12.75;12.75;;;;;27.55;42.68;101348.03;4982774;28;45361;-75
2021/06/10 00:32:25;;;;;;;;;15.50;12.50;;;;;27.52;42.62;101342.78;5000448;28;45424;-74
2021/06/10 00:34:50;;;;;;;;;12.25;11.00;;;;;27.52;42.76;101355.34;5000120;28;53331;-75
2021/06/10 00:37:16;;;;;;;;;13.25;13.25;;;;;27.49;42.93;101342.97;4982459;28;47468;-75
2021/06/10 00:39:41;;;;;;;;;14.25;14.00;;;;;27.51;42.88;101350.91;4965412;28;45282;-75
2021/06/10 00:42:08;;;;;;;;;17.50;14.25;;;;;27.46;43.06;101351.19;4982442;28;45808;-75
2021/06/10 00:44:33;;;;;;;;;16.00;16.00;;;;;27.48;42.81;101346.59;4974691;28;45286;-74
2021/06/10 00:46:59;;;;;;;;;12.25;12.25;;;;;27.45;42.91;101352.09;4972148;28;51077;-74
2021/06/10 00:49:24;;;;;;;;;13.25;13.25;;;;;27.47;43.43;101352.03;5002030;28;45211;-74
2021/06/10 00:51:50;;;;;;;;;13.00;12.25;;;;;27.46;43.31;101361.91;4983853;28;45308;-75
2021/06/10 00:54:15;;;;;;;;;15.75;13.00;;;;;27.46;43.50;101361.91;4981833;28;60626;-74
2021/06/10 00:56:40;;;;;;;;;12.00;12.00;;;;;27.43;43.45;101348.63;4999828;28;47010;-74
2021/06/10 00:59:06;;;;;;;;;13.00;13.00;;;;;27.42;43.15;101346.91;4982157;28;48470;-74
2021/06/10 01:01:31;;;;;;;;;13.75;13.75;;;;;27.43;43.63;101350.44;4999775;28;45472;-74
2021/06/10 01:03:57;;;;;;;;;6.00;6.00;;;;;27.42;43.55;101354.94;5008560;28;45293;-74
2021/06/10 01:06:39;;;;;;;;;16.00;12.25;;;;;27.36;43.89;101352.56;5004626;28;46332;-74
2021/06/10 01:09:07;;;;;;;;;13.00;12.00;;;;;27.33;43.65;101350.06;4972128;28;45348;-75
2021/06/10 01:11:44;;;;;;;;;13.50;11.75;;;;;27.30;44.05;101347.53;4986099;28;45287;-74
2021/06/10 01:14:34;;;;;;;;;13.75;13.75;;;;;27.32;43.93;101345.66;5001864;28;45572;-74
2021/06/10 01:17:01;;;;;;;;;13.00;11.50;;;;;27.34;43.81;101343.75;4998520;28;47482;-75
2021/06/10 01:19:41;;;;;;;;;10.75;10.75;;;;;27.35;43.79;101342.78;4978880;28;45248;-75
2021/06/10 01:22:09;;;;;;;;;14.00;12.50;;;;;27.34;43.57;101349.09;5019630;28;45262;-74
2021/06/10 01:24:54;;;;;;;;;14.00;14.00;;;;;27.30;43.89;101329.66;4985059;28;45571;-75
2021/06/10 01:27:25;;;;;;;;;14.00;14.00;;;;;27.32;43.83;101330.44;5002412;28;45340;-75
2021/06/10 01:29:55;;;;;;;;;11.00;11.00;;;;;27.32;43.59;101324.19;4985546;28;45494;-75
2021/06/10 01:32:21;;;;;;;;;13.00;11.25;;;;;27.34;43.70;101319.63;4987842;28;45311;-75
2021/06/10 01:34:46;;;;;;;;;14.50;13.75;;;;;27.33;43.70;101317.88;4982103;28;45548;-75
2021/06/10 01:37:12;;;;;;;;;13.00;13.00;;;;;27.35;43.50;101321.34;4959883;28;52937;-75
2021/06/10 01:39:37;;;;;;;;;13.25;11.50;;;;;27.36;43.80;101319.53;4989592;28;45359;-75
2021/06/10 01:42:03;;;;;;;;;12.25;12.25;;;;;27.37;44.12;101321.28;4967451;28;64063;-74
2021/06/10 01:44:28;;;;;;;;;12.50;12.00;;;;;27.39;43.38;101330.97;4972969;28;45510;-74
2021/06/10 01:46:54;;;;;;;;;15.75;15.75;;;;;27.36;43.74;101316.84;4999995;28;64824;-74
2021/06/10 01:49:19;;;;;;;;;12.00;12.00;;;;;27.36;44.12;101331.13;4956342;28;57167;-75
2021/06/10 01:51:45;;;;;;;;;14.00;12.75;;;;;27.33;43.71;101317.88;4971144;28;45871;-74
2021/06/10 01:54:10;;;;;;;;;12.00;12.00;;;;;27.33;43.70;101315.22;4985070;28;45428;-74
2021/06/10 01:56:36;;;;;;;;;13.50;12.25;;;;;27.31;43.62;101314.44;4962877;28;50888;-74
2021/06/10 01:59:01;;;;;;;;;12.25;12.25;;;;;27.28;43.32;101310.09;4981143;28;45615;-74
2021/06/10 02:01:29;;;;;;;;;13.75;13.75;;;;;27.33;43.57;101316.06;4989643;28;45523;-75
2021/06/10 02:03:55;;;;;;;;;12.00;11.25;;;;;27.31;43.43;101312.63;4968964;28;45354;-74
2021/06/10 02:06:20;;;;;;;;;13.00;12.75;;;;;27.36;43.29;101317.72;4968712;28;46292;-75
2021/06/10 02:08:47;;;;;;;;;13.25;13.25;;;;;27.37;43.51;101324.84;4955971;28;45250;-75
2021/06/10 02:11:12;;;;;;;;;15.75;11.75;;;;;27.36;43.41;101317.72;4985113;28;45268;-74
2021/06/10 02:13:38;;;;;;;;;16.00;15.00;;;;;27.32;43.48;101319.72;4956000;28;45348;-75
2021/06/10 02:16:05;;;;;;;;;12.00;12.00;;;;;27.36;43.35;101324.91;5002688;28;45388;-75
2021/06/10 02:18:32;;;;;;;;;11.75;11.75;;;;;27.36;43.16;101319.53;4997645;28;45326;-75
2021/06/10 02:21:02;;;;;;;;;15.25;13.75;;;;;27.35;42.63;101316.00;5002596;28;45408;-75
2021/06/10 02:23:28;;;;;;;;;14.75;12.75;;;;;27.35;42.84;101323.16;4984487;28;45340;-75
2021/06/10 02:25:56;;;;;;;;;13.25;12.50;;;;;27.34;42.82;101324.97;5001691;28;56606;-74
2021/06/10 02:28:21;;;;;;;;;13.25;13.25;;;;;27.28;42.46;101310.09;4985135;28;45440;-75
2021/06/10 02:30:47;;;;;;;;;12.75;12.75;;;;;27.33;41.89;101329.47;4968339;28;45452;-75
2021/06/10 02:33:12;;;;;;;;;13.00;12.00;;;;;27.33;42.19;101329.47;4976052;28;45511;-75
2021/06/10 02:35:38;;;;;;;;;10.75;10.75;;;;;27.32;41.82;101326.88;4986073;28;67012;-75
2021/06/10 02:38:03;;;;;;;;;12.75;12.25;;;;;27.28;41.81;101320.81;4984430;28;45515;-75
2021/06/10 02:40:37;;;;;;;;;13.25;13.25;;;;;27.24;41.78;101319.22;4968402;28;45260;-75
2021/06/10 02:43:04;;;;;;;;;11.00;11.00;;;;;27.20;41.75;101325.69;4976801;28;45457;-75
2021/06/10 02:45:30;;;;;;;;;11.00;11.00;;;;;27.19;41.66;101325.75;5001811;28;48325;-75
2021/06/10 02:47:56;;;;;;;;;10.75;10.00;;;;;27.16;41.11;101321.44;4984539;28;45370;-75
2021/06/10 02:50:24;;;;;;;;;12.25;11.00;;;;;27.16;41.08;101317.88;4963911;28;45550;-75
2021/06/10 02:52:49;;;;;;;;;13.00;10.25;;;;;27.10;41.13;101316.38;4994723;28;45688;-75
2021/06/10 02:55:18;;;;;;;;;12.00;11.25;;;;;27.12;40.93;101313.63;4964845;28;47011;-74
2021/06/10 02:57:52;;;;;;;;;11.50;11.50;;;;;27.10;41.04;101313.69;4984252;28;45239;-75
2021/06/10 03:00:21;;;;;;;;;12.25;10.25;;;;;27.07;40.80;101316.53;4977093;28;45348;-75
2021/06/10 03:02:50;;;;;;;;;12.75;11.25;;;;;27.08;40.68;101320.09;4987904;28;45230;-75
2021/06/10 03:05:15;;;;;;;;;11.25;11.25;;;;;27.06;40.62;101314.81;4987479;28;45447;-75
2021/06/10 03:07:41;;;;;;;;;9.25;9.25;;;;;27.08;40.94;101310.22;5003404;28;57704;-75
2021/06/10 03:10:08;;;;;;;;;12.00;12.00;;;;;27.07;41.08;101310.31;4983777;28;45384;-75
2021/06/10 03:12:34;;;;;;;;;10.50;10.50;;;;;27.08;41.49;101306.69;4967812;28;45445;-75
2021/06/10 03:15:00;;;;;;;;;13.25;10.50;;;;;27.06;41.22;101301.41;4967465;28;45831;-75
2021/06/10 03:17:25;;;;;;;;;10.75;10.75;;;;;27.10;40.78;101311.00;4963602;28;45279;-75
2021/06/10 03:19:51;;;;;;;;;12.00;11.00;;;;;27.08;41.63;101312.91;4967581;28;45741;-75
2021/06/10 03:22:16;;;;;;;;;11.00;11.00;;;;;27.03;41.47;101305.13;4967663;28;45453;-75
2021/06/10 03:24:41;;;;;;;;;11.75;11.75;;;;;27.11;41.46;101311.91;4983927;28;56561;-75
2021/06/10 03:27:07;;;;;;;;;15.25;13.25;;;;;27.12;40.99;101306.47;4995592;28;45378;-75
2021/06/10 03:29:33;;;;;;;;;12.75;12.75;;;;;27.13;41.43;101302.84;4986857;28;45476;-74
2021/06/10 03:31:59;;;;;;;;;11.50;11.00;;;;;27.12;41.24;101308.28;4970805;28;45506;-75
2021/06/10 03:34:24;;;;;;;;;12.50;9.50;;;;;27.10;41.00;101310.16;4968674;28;45969;-75
2021/06/10 03:36:50;;;;;;;;;13.00;12.00;;;;;27.11;41.32;101303.88;4995411;28;45312;-75
2021/06/10 03:39:15;;;;;;;;;11.50;11.50;;;;;27.10;41.38;101305.66;4986768;28;45447;-74
2021/06/10 03:41:41;;;;;;;;;14.75;12.50;;;;;27.08;41.09;101301.31;5009862;28;46929;-75
2021/06/10 03:44:08;;;;;;;;;11.00;11.00;;;;;27.06;40.88;101295.19;4983312;28;47126;-74
2021/06/10 03:46:34;;;;;;;;;12.50;12.50;;;;;27.06;41.03;101301.41;4983729;28;45360;-74
2021/06/10 03:48:59;;;;;;;;;14.50;14.00;;;;;27.07;41.30;101299.59;4983594;28;45269;-75
2021/06/10 03:51:25;;;;;;;;;10.75;10.75;;;;;27.04;41.07;101298.81;4990611;28;61504;-74
2021/06/10 03:53:50;;;;;;;;;10.50;10.50;;;;;27.01;40.68;101290.00;4968640;28;45198;-75
2021/06/10 03:56:16;;;;;;;;;11.50;11.50;;;;;26.91;40.73;101294.97;4994609;28;45199;-75
2021/06/10 03:58:41;;;;;;;;;11.75;11.50;;;;;26.87;40.78;101292.53;5020636;28;45282;-75
2021/06/10 04:01:07;;;;;;;;;12.00;11.00;;;;;26.81;40.92;101279.44;4985927;28;62647;-74
2021/06/10 04:03:32;;;;;;;;;11.00;10.50;;;;;26.82;41.48;101284.72;5003004;28;45682;-74
2021/06/10 04:05:58;;;;;;;;;11.00;11.00;;;;;26.84;40.75;101287.31;4992112;28;45330;-74
2021/06/10 04:08:26;;;;;;;;;11.75;10.50;;;;;26.86;40.96;101294.34;5000256;28;45445;-75
2021/06/10 04:10:51;;;;;;;;;9.25;9.00;;;;;26.85;40.63;101279.22;5002656;28;45436;-75
2021/06/10 04:13:17;;;;;;;;;12.00;12.00;;;;;26.83;40.43;101291.81;4965367;28;46029;-76
2021/06/10 04:15:42;;;;;;;;;10.00;10.00;;;;;26.83;40.39;101289.13;4950563;28;45586;-75
2021/06/10 04:18:07;;;;;;;;;11.75;11.00;;;;;26.77;40.16;101279.59;4982377;28;60552;-75
2021/06/10 04:20:33;;;;;;;;;9.25;7.00;;;;;26.81;40.45;101306.22;4961887;28;45526;-76
2021/06/10 04:22:58;;;;;;;;;10.50;10.00;;;;;26.81;40.14;101298.19;5001324;28;64714;-75
2021/06/10 04:25:24;;;;;;;;;9.50;9.50;;;;;26.81;40.04;101295.50;4982294;28;58570;-76
2021/06/10 04:27:49;;;;;;;;;10.00;9.50;;;;;26.83;40.26;101299.84;5000518;28;45427;-75
2021/06/10 04:30:15;;;;;;;;;10.00;9.00;;;;;26.83;40.54;101304.31;4999825;28;61764;-76
2021/06/10 04:32:44;;;;;;;;;13.00;12.00;;;;;26.83;40.18;101301.66;4966407;28;46201;-75
2021/06/10 04:35:10;;;;;;;;;12.00;9.50;;;;;26.87;40.09;101308.59;4958857;28;45368;-74
2021/06/10 04:37:35;;;;;;;;;8.75;8.75;;;;;26.85;40.31;101300.66;5005485;28;45374;-74
2021/06/10 04:40:01;;;;;;;;;9.50;9.50;;;;;26.87;39.82;101308.59;4974168;28;45511;-74
2021/06/10 04:42:26;;;;;;;;;9.00;7.75;;;;;26.83;39.83;101305.19;4983467;28;62202;-75
2021/06/10 04:44:52;;;;;;;;;12.75;9.25;;;;;26.83;39.86;101301.66;4990347;28;65909;-75
2021/06/10 04:47:40;;;;;;;;;8.50;8.50;;;;;26.85;39.22;101310.50;4984185;28;45433;-75
2021/06/10 04:50:06;;;;;;;;;9.75;8.00;;;;;26.84;39.19;101314.09;4988854;28;45271;-75
2021/06/10 04:52:32;;;;;;;;;7.50;7.50;;;;;26.76;39.23;101296.63;4966102;28;47063;-75
2021/06/10 04:55:00;;;;;;;;;12.25;11.00;;;;;26.83;38.53;101317.72;4967638;28;45495;-76
2021/06/10 04:57:26;;;;;;;;;6.75;6.25;;;;;26.81;38.46;101323.16;4985742;28;45373;-76
2021/06/10 04:59:52;;;;;;;;;8.00;7.00;;;;;26.81;38.26;101323.16;4984102;28;45283;-75
2021/06/10 05:02:17;;;;;;;;;8.00;7.25;;;;;26.79;38.40;101322.38;4999181;28;65445;-74
2021/06/10 05:04:43;;;;;;;;;7.00;7.00;;;;;26.76;38.07;101322.53;4982668;28;52205;-74
2021/06/10 05:07:11;;;;;;;;;7.50;7.50;;;;;26.76;38.13;101330.56;4994795;28;48701;-74
2021/06/10 05:09:36;;;;;;;;;9.25;8.25;;;;;26.74;38.00;101321.72;4998675;28;45476;-75
2021/06/10 05:12:02;;;;;;;;;7.00;7.00;;;;;26.73;37.52;101320.84;4989758;28;55572;-74
2021/06/10 05:14:27;;;;;;;;;7.25;7.25;;;;;26.71;37.68;101325.41;4984554;28;46104;-75
2021/06/10 05:16:52;;;;;;;;;8.75;8.25;;;;;26.71;36.94;101321.88;4982029;28;49387;-75
2021/06/10 05:19:18;;;;;;;;;6.00;6.00;;;;;26.63;37.05;101314.22;4976426;28;45477;-76
2021/06/10 05:21:43;;;;;;;;;6.00;6.00;;;;;26.59;37.41;101314.44;4994657;28;45457;-77
2021/06/10 05:24:23;;;;;;;;;6.00;6.00;;;;;26.58;36.92;101318.91;5011855;28;45538;-76
2021/06/10 05:26:51;;;;;;;;;7.25;6.50;;;;;26.56;37.03;101310.09;4992655;28;45338;-76
2021/06/10 05:29:16;;;;;;;;;9.25;6.75;;;;;26.60;36.82;101305.47;5004673;28;45255;-74
2021/06/10 05:31:42;;;;;;;;;5.50;5.00;;;;;26.63;37.19;101306.19;4985666;28;46466;-76
2021/06/10 05:34:07;;;;;;;;;8.75;8.00;;;;;26.65;37.15;101317.69;5006418;28;45496;-73
2021/06/10 05:36:33;;;;;;;;;7.00;5.00;;;;;26.63;37.13;101299.97;4984928;28;59287;-73
2021/06/10 05:38:58;;;;;;;;;6.75;6.75;;;;;26.69;37.72;101311.25;5002715;28;45584;-73
2021/06/10 05:41:23;;;;;;;;;6.25;6.25;;;;;26.74;36.46;101311.88;4958579;28;47700;-75
2021/06/10 05:43:49;;;;;;;;;6.25;6.25;;;;;26.74;35.84;101317.22;5005303;28;45408;-74
2021/06/10 05:46:14;;;;;;;;;6.00;6.00;;;;;26.72;34.66;101315.56;5005031;28;45452;-73
2021/06/10 05:48:43;;;;;;;;;4.50;4.50;;;;;26.67;35.94;101318.50;5022636;28;45347;-75
2021/06/10 05:51:11;;;;;;;;;6.00;6.00;;;;;26.68;35.93;101320.22;5007015;28;45411;-73
2021/06/10 05:53:36;;;;;;;;;4.75;4.75;;;;;26.70;34.50;101315.66;4995251;28;45312;-76
2021/06/10 05:56:03;;;;;;;;;4.75;4.75;;;;;26.68;35.13;101324.72;4985616;28;45405;-78
2021/06/10 05:58:28;;;;;;;;;3.50;3.50;;;;;26.66;34.57;101323.91;4985240;28;45475;-74
2021/06/10 06:00:53;;;;;;;;;4.75;4.75;;;;;26.61;33.78;101316.09;4972738;28;62949;-74
2021/06/10 06:03:21;;;;;;;;;4.25;4.25;;;;;26.64;34.35;101323.97;4987321;28;45347;-75
2021/06/10 06:05:49;;;;;;;;;6.75;4.75;;;;;26.63;34.24;101313.34;5012117;28;45270;-74
2021/06/10 06:08:16;;;;;;;;;4.00;4.00;;;;;26.63;33.62;101326.72;4997550;28;46082;-73
2021/06/10 06:10:48;;;;;;;;;3.00;3.00;;;;;26.60;34.06;101325.09;4985091;28;45319;-73
2021/06/10 06:13:15;;;;;;;;;5.75;5.50;;;;;26.57;33.32;101332.38;4969340;28;45283;-74
2021/06/10 06:15:40;;;;;;;;;4.50;4.50;;;;;26.54;33.66;101332.53;4960570;28;45306;-72
2021/06/10 06:18:08;;;;;;;;;4.25;4.25;;;;;26.52;32.94;101340.66;4985756;28;52033;-73
2021/06/10 06:20:34;;;;;;;;;4.75;4.75;;;;;26.49;33.87;101341.63;4968428;28;46931;-71
2021/06/10 06:22:59;;;;;;;;;5.50;4.00;;;;;26.48;33.41;101342.59;4999198;28;45617;-72
2021/06/10 06:25:25;;;;;;;;;7.50;4.50;;;;;26.48;33.67;101339.03;4995531;28;51869;-72
2021/06/10 06:27:50;;;;;;;;;5.00;4.25;;;;;26.47;33.72;101334.63;4968109;28;45432;-73
2021/06/10 06:30:16;;;;;;;;;4.75;4.75;;;;;26.44;33.15;101332.09;4984532;28;45428;-73
2021/06/10 06:32:42;;;;;;;;;3.75;3.75;;;;;26.44;32.95;101338.31;4986305;28;45440;-74
2021/06/10 06:35:08;;;;;;;;;4.50;4.00;;;;;26.41;33.73;101345.63;4968331;28;45333;-74
2021/06/10 06:37:35;;;;;;;;;4.00;4.00;;;;;26.43;32.91;101351.78;4968472;28;45426;-72
2021/06/10 06:40:01;;;;;;;;;3.75;3.75;;;;;26.41;33.68;101354.53;4988145;28;46239;-72
2021/06/10 06:42:26;;;;;;;;;5.50;4.75;;;;;26.43;34.67;101362.50;5020532;28;45301;-73
2021/06/10 06:44:52;;;;;;;;;4.25;4.25;;;;;26.45;34.71;101364.16;5004174;28;49749;-74
2021/06/10 06:47:18;;;;;;;;;6.25;5.00;;;;;26.47;34.04;101367.63;4984568;28;45565;-76
2021/06/10 06:49:43;;;;;;;;;8.50;5.00;;;;;26.47;33.08;101366.75;4990727;28;46077;-73
2021/06/10 06:52:08;;;;;;;;;4.75;4.50;;;;;26.43;33.93;101370.53;5009577;28;54826;-74
2021/06/10 06:54:34;;;;;;;;;6.25;5.25;;;;;26.45;33.19;101368.63;4999576;28;53174;-75
2021/06/10 06:56:59;;;;;;;;;4.00;4.00;;;;;26.43;33.93;101367.84;4967882;28;46335;-73
2021/06/10 06:59:25;;;;;;;;;4.00;4.00;;;;;26.43;33.16;101370.53;4987226;28;45449;-73
2021/06/10 07:01:50;;;;;;;;;4.75;4.50;;;;;26.45;33.56;101382.03;5002224;28;54479;-73
2021/06/10 07:04:16;;;;;;;;;4.00;4.00;;;;;26.42;34.04;101383.03;5013002;28;45903;-74
2021/06/10 07:06:41;;;;;;;;;5.00;5.00;;;;;26.44;33.66;101380.28;5014523;28;51551;-73
2021/06/10 07:09:06;;;;;;;;;6.50;4.75;;;;;26.46;33.03;101381.94;4992409;28;47025;-73
2021/06/10 07:11:33;;;;;;;;;4.00;4.00;;;;;26.44;33.11;101377.63;4999644;28;61083;-72
2021/06/10 07:13:58;;;;;;;;;3.75;3.50;;;;;26.43;32.96;101386.59;5010376;28;45723;-73
2021/06/10 07:16:23;;;;;;;;;4.00;4.00;;;;;26.43;32.34;101389.25;5020860;28;57228;-73
2021/06/10 07:18:49;;;;;;;;;5.00;5.00;;;;;26.37;32.59;101381.47;4967925;28;46473;-73
2021/06/10 07:21:14;;;;;;;;;4.00;4.00;;;;;26.37;32.81;101387.69;5018373;28;45221;-74
2021/06/10 07:23:40;;;;;;;;;4.50;4.50;;;;;26.40;32.19;101389.38;5003335;28;45622;-77
2021/06/10 07:26:05;;;;;;;;;5.00;5.00;;;;;26.36;32.28;101385.97;4988840;28;57657;-74
2021/06/10 07:28:30;;;;;;;;;5.25;5.25;;;;;26.36;32.61;101393.13;4987326;28;46164;-72
2021/06/10 07:30:56;;;;;;;;;5.00;4.75;;;;;26.36;32.56;101387.78;5000916;28;45271;-72
2021/06/10 07:33:21;;;;;;;;;4.00;4.00;;;;;26.36;32.65;101393.13;4999340;28;45424;-72
2021/06/10 07:35:47;;;;;;;;;6.75;5.75;;;;;26.39;32.33;101393.00;5011887;28;45155;-73
2021/06/10 07:38:13;;;;;;;;;4.25;4.25;;;;;26.39;32.38;101388.53;5012248;28;45505;-72
2021/06/10 07:40:38;;;;;;;;;6.50;5.00;;;;;26.39;32.28;101382.28;5002662;28;45490;-72
2021/06/10 07:43:04;;;;;;;;;10.00;7.75;;;;;26.40;32.19;101384.03;4993239;28;45405;-72
2021/06/10 07:45:29;;;;;;;;;6.00;6.00;;;;;26.39;31.57;101377.81;5000841;28;45396;-73
2021/06/10 07:47:55;;;;;;;;;6.25;4.75;;;;;26.41;32.05;101383.09;4998563;28;45439;-72
2021/06/10 07:50:20;;;;;;;;;6.50;6.25;;;;;26.40;32.05;101389.38;5007035;28;61981;-71
2021/06/10 07:52:46;;;;;;;;;4.50;4.50;;;;;26.42;31.66;101385.72;4985086;28;45804;-72
2021/06/10 07:55:11;;;;;;;;;5.00;5.00;;;;;26.41;31.61;101386.66;4989724;28;45429;-72
2021/06/10 07:57:37;;;;;;;;;3.50;3.50;;;;;26.42;31.57;101393.75;4966029;28;47069;-72
2021/06/10 08:00:04;;;;;;;;;4.00;4.00;;;;;26.42;32.32;101393.75;5001813;28;45427;-73
2021/06/10 08:02:30;;;;;;;;;4.25;4.25;;;;;26.46;31.97;101399.81;4987732;28;45534;-72
2021/06/10 08:04:55;;;;;;;;;7.00;4.50;;;;;26.48;31.57;101392.56;5004320;28;57616;-72
2021/06/10 08:07:21;;;;;;;;;4.25;4.25;;;;;26.52;31.61;101401.34;4998835;28;61648;-72
2021/06/10 08:09:46;;;;;;;;;6.50;6.50;;;;;26.54;31.26;101396.78;4982240;28;45244;-71
2021/06/10 08:12:11;;;;;;;;;6.25;4.25;;;;;26.55;31.71;101385.13;4998376;28;45317;-72
2021/06/10 08:14:37;;;;;;;;;5.00;4.00;;;;;26.58;31.62;101391.19;5004870;28;45356;-72
2021/06/10 08:17:03;;;;;;;;;5.00;5.00;;;;;26.59;31.51;101386.75;5001558;28;46113;-72
2021/06/10 08:19:28;;;;;;;;;4.75;4.75;;;;;26.63;31.71;101385.63;5005395;28;45496;-73
2021/06/10 08:21:53;;;;;;;;;7.25;7.25;;;;;26.69;31.49;101388.03;4983167;28;45293;-71
2021/06/10 08:24:19;;;;;;;;;5.00;5.00;;;;;26.73;31.65;101384.25;4999744;28;45432;-73
2021/06/10 08:26:44;;;;;;;;;6.00;6.00;;;;;26.73;31.30;101387.81;5001969;28;45922;-71
2021/06/10 08:29:10;;;;;;;;;8.25;6.25;;;;;26.77;31.98;101377.81;4983733;28;45445;-71
2021/06/10 08:31:36;;;;;;;;;5.25;3.25;;;;;26.83;31.77;101380.19;4955879;28;45368;-72
2021/06/10 08:34:02;;;;;;;;;4.25;4.25;;;;;26.85;31.70;101370.28;5004257;28;45572;-72
2021/06/10 08:36:27;;;;;;;;;7.00;6.00;;;;;26.90;31.86;101373.59;5000322;28;46315;-72
2021/06/10 08:38:53;;;;;;;;;5.00;5.00;;;;;26.90;31.13;101373.59;5011995;28;45173;-73
2021/06/10 08:41:18;;;;;;;;;6.25;6.25;;;;;26.91;30.94;101375.31;4979719;28;59732;-75
2021/06/10 08:43:45;;;;;;;;;5.00;4.75;;;;;26.86;32.00;101371.16;5000835;28;45537;-72
2021/06/10 08:46:13;;;;;;;;;5.50;5.00;;;;;26.91;31.91;101380.69;4990175;28;45391;-79
2021/06/10 08:48:43;;;;;;;;;5.00;5.00;;;;;26.96;31.64;101383.16;4982723;28;45376;-74
2021/06/10 08:51:09;;;;;;;;;6.00;5.50;;;;;26.98;31.88;101376.78;5005404;28;45248;-72
2021/06/10 08:53:35;;;;;;;;;6.75;6.75;;;;;27.01;31.35;101371.25;5002986;28;45503;-72
2021/06/10 08:56:00;;;;;;;;;7.75;5.00;;;;;26.98;30.88;101375.91;4992943;28;46049;-70
2021/06/10 08:58:27;;;;;;;;;5.25;5.00;;;;;26.93;30.72;101365.44;5003493;28;45278;-73
2021/06/10 09:00:53;;;;;;;;;5.75;5.75;;;;;26.91;30.99;101363.75;5016445;28;45266;-73
2021/06/10 09:03:23;;;;;;;;;5.00;4.75;;;;;26.92;31.05;101369.03;5001492;28;45436;-73
2021/06/10 09:06:05;;;;;;;;;6.25;5.75;;;;;26.91;31.38;101366.44;5001267;28;45467;-76
2021/06/10 09:08:30;;;;;;;;;6.25;6.25;;;;;26.92;31.11;101360.13;5009564;28;45488;-73
2021/06/10 09:11:15;;;;;;;;;6.75;6.75;;;;;26.95;31.28;101365.34;5006767;28;56985;-73
2021/06/10 09:13:45;;;;;;;;;8.00;7.50;;;;;26.97;31.84;101364.31;4993178;28;45256;-73
2021/06/10 09:16:38;;;;;;;;;7.75;6.00;;;;;27.02;31.49;101369.47;5006898;28;46442;-75
2021/06/10 09:19:09;;;;;;;;;6.00;6.00;;;;;27.03;31.12;101357.84;5001808;28;45341;-75
2021/06/10 09:21:53;;;;;;;;;6.00;4.75;;;;;27.04;31.41;101362.25;4970287;28;45394;-75
2021/06/10 09:24:19;;;;;;;;;6.25;6.25;;;;;27.06;31.68;101363.03;5001948;28;45335;-78
2021/06/10 09:26:46;;;;;;;;;8.50;6.25;;;;;27.08;31.51;101355.78;5014221;28;45448;-78
2021/06/10 09:29:12;;;;;;;;;8.50;6.50;;;;;27.11;31.69;101361.00;4965657;28;45761;-77
2021/06/10 09:31:37;;;;;;;;;8.25;6.00;;;;;27.14;31.78;101370.69;4984659;28;58453;-78
2021/06/10 09:34:08;;;;;;;;;5.00;5.00;;;;;27.18;32.76;101367.78;4968241;28;45223;-82
2021/06/10 09:36:40;;;;;;;;;7.75;5.50;;;;;27.20;32.91;101363.22;5004717;28;46991;-78
2021/06/10 09:39:10;;;;;;;;;7.00;6.00;;;;;27.26;32.17;101364.72;5001576;28;45306;-79
2021/06/10 09:42:02;;;;;;;;;7.00;6.00;;;;;27.30;32.31;101355.59;4975955;28;45534;-79
2021/06/10 09:44:45;;;;;;;;;7.75;7.75;;;;;27.32;31.89;101367.09;5002807;28;45380;-77
2021/06/10 09:47:10;;;;;;;;;7.75;6.50;;;;;27.33;32.54;101367.00;5008046;28;45343;-78
2021/06/10 09:49:36;;;;;;;;;5.75;5.00;;;;;27.35;31.92;101364.25;5005044;28;45412;-78
2021/06/10 09:52:04;;;;;;;;;5.75;5.75;;;;;27.36;32.49;101365.97;5018999;28;45364;-78
2021/06/10 09:54:51;;;;;;;;;6.25;5.25;;;;;27.41;32.53;101373.78;5006701;28;45366;-77
2021/06/10 09:57:17;;;;;;;;;7.25;5.00;;;;;27.42;32.91;101370.16;5005438;28;46769;-78
2021/06/10 09:59:52;;;;;;;;;7.75;7.75;;;;;27.38;31.58;101364.09;5013616;28;47493;-78
2021/06/10 10:02:25;;;;;;;;;9.00;7.50;;;;;27.41;32.51;101360.38;4992277;28;45472;-78
2021/06/10 10:05:01;;;;;;;;;8.00;5.50;;;;;27.43;31.99;101374.56;5002998;28;45529;-78
2021/06/10 10:07:27;;;;;;;;;7.00;7.00;;;;;27.44;31.93;101368.25;5001350;28;46162;-78
2021/06/10 10:09:55;;;;;;;;;7.50;7.50;;;;;27.46;32.80;101371.75;4981553;28;45872;-78
2021/06/10 10:12:20;;;;;;;;;11.00;8.75;;;;;27.45;32.39;101365.50;4967305;28;45314;-79
2021/06/10 10:14:46;;;;;;;;;6.75;6.75;;;;;27.46;32.28;101364.59;4981250;28;57526;-79
2021/06/10 10:17:11;;;;;;;;;8.25;7.25;;;;;27.46;32.05;101369.94;4969091;28;45887;-78
2021/06/10 10:19:37;;;;;;;;;4.25;4.00;;;;;27.44;32.18;101361.09;4967069;28;45244;-79
2021/06/10 10:22:02;;;;;;;;;8.00;7.25;;;;;27.49;31.98;101360.88;4967816;28;58835;-79
2021/06/10 10:24:28;;;;;;;;;8.25;8.00;;;;;27.48;31.87;101351.97;4985269;28;45675;-79
2021/06/10 10:26:53;;;;;;;;;6.25;6.25;;;;;27.48;32.21;101360.00;4968248;28;66668;-79
2021/06/10 10:29:19;;;;;;;;;5.00;5.00;;;;;27.52;32.01;101358.88;4983605;28;62799;-79
2021/06/10 10:31:45;;;;;;;;;9.75;7.50;;;;;27.53;32.46;101352.56;4977285;28;45410;-78
2021/06/10 10:34:30;;;;;;;;;5.00;5.00;;;;;27.53;32.02;101346.34;4983961;28;45528;-79
2021/06/10 10:36:56;;;;;;;;;9.25;7.50;;;;;27.53;31.85;101346.34;4978209;28;48308;-79
2021/06/10 10:39:33;;;;;;;;;8.25;6.50;;;;;27.52;32.86;101344.59;4951972;28;45445;-78
2021/06/10 10:41:59;;;;;;;;;8.00;6.00;;;;;27.54;32.33;101348.97;4968435;28;45283;-79
2021/06/10 10:44:26;;;;;;;;;7.00;7.00;;;;;27.56;33.16;101347.06;4974256;28;45503;-78
2021/06/10 10:47:09;;;;;;;;;9.25;8.50;;;;;27.56;32.85;101348.88;4987678;28;45533;-79
2021/06/10 10:49:44;;;;;;;;;7.75;6.25;;;;;27.57;33.02;101348.78;4968208;28;45290;-79
2021/06/10 10:52:26;;;;;;;;;5.75;5.50;;;;;27.56;33.45;101344.38;5007994;28;45183;-79
2021/06/10 10:54:52;;;;;;;;;6.50;6.50;;;;;27.57;33.30;101343.44;5013926;28;45423;-79
2021/06/10 10:57:45;;;;;;;;;7.00;6.00;;;;;27.56;33.36;101347.06;5021429;28;46187;-79
2021/06/10 11:00:13;;;;;;;;;8.75;7.50;;;;;27.56;33.02;101343.53;5018667;28;45368;-79
2021/06/10 11:02:50;;;;;;;;;6.25;6.00;;;;;27.55;33.62;101344.47;4999591;28;45167;-80
2021/06/10 11:05:29;;;;;;;;;8.25;8.25;;;;;27.54;34.18;101343.59;4970562;28;45493;-79
2021/06/10 11:07:54;;;;;;;;;7.25;6.50;;;;;27.55;33.93;101339.09;4986522;28;46056;-79
2021/06/10 11:10:39;;;;;;;;;7.00;7.00;;;;;27.54;33.62;101334.66;4984279;28;45342;-79
2021/06/10 11:13:14;;;;;;;;;10.00;9.00;;;;;27.53;34.10;101331.13;5001453;28;45510;-79
2021/06/10 11:15:42;;;;;;;;;7.00;7.00;;;;;27.53;33.74;101335.63;4974542;28;45423;-79
2021/06/10 11:18:08;;;;;;;;;8.00;6.50;;;;;27.51;33.94;101333.00;5001396;28;45297;-79
2021/06/10 11:20:36;;;;;;;;;7.00;6.75;;;;;27.52;33.67;101333.88;5001717;28;45252;-79